createdAt,value
2022-12-20T00:01:55.115Z,13.48
2022-12-20T00:06:56.728Z,13.93
2022-12-20T00:11:58.203Z,14.85
2022-12-20T00:16:59.924Z,12.93
2022-12-20T00:22:01.462Z,13.35
2022-12-20T00:27:02.948Z,12.32
2022-12-20T00:32:04.637Z,12.80
2022-12-20T00:37:06.144Z,13.13
2022-12-20T00:42:07.564Z,12.93
2022-12-20T00:47:09.102Z,12.73
2022-12-20T00:52:10.566Z,12.68
2022-12-20T00:57:11.992Z,12.30
2022-12-20T01:02:13.483Z,12.32
2022-12-20T01:07:15.161Z,12.77
2022-12-20T01:12:16.861Z,12.18
2022-12-20T01:17:18.467Z,12.52
2022-12-20T01:22:19.919Z,13.65
2022-12-20T01:27:21.468Z,13.02
2022-12-20T01:32:22.987Z,12.93
2022-12-20T01:37:24.459Z,14.10
2022-12-20T01:42:25.950Z,14.73
2022-12-20T01:47:32.007Z,15.63
2022-12-20T01:52:40.120Z,16.75
2022-12-20T01:58:00.746Z,15.45
2022-12-20T02:03:06.728Z,15.18
2022-12-20T02:08:10.207Z,16.92
2022-12-20T02:13:24.716Z,14.48
2022-12-20T02:18:43.118Z,15.00
2022-12-20T02:23:53.580Z,14.68
2022-12-20T02:29:06.795Z,14.63
2022-12-20T02:34:09.905Z,14.63
2022-12-20T02:39:15.757Z,14.57
2022-12-20T02:44:38.847Z,15.07
2022-12-20T02:49:44.211Z,14.38
2022-12-20T02:54:46.180Z,13.95
2022-12-20T02:59:59.847Z,14.45
2022-12-20T03:05:02.648Z,14.10
2022-12-20T03:10:04.421Z,15.13
2022-12-20T03:15:06.357Z,14.90
2022-12-20T03:20:08.870Z,13.57
2022-12-20T03:25:10.320Z,14.35
2022-12-20T03:30:12.497Z,13.38
2022-12-20T03:35:15.114Z,15.15
2022-12-20T03:40:16.672Z,14.20
2022-12-20T03:45:18.538Z,14.10
2022-12-20T03:50:19.975Z,14.18
2022-12-20T03:55:21.469Z,12.57
2022-12-20T04:00:23.023Z,12.45
2022-12-20T04:05:24.563Z,13.75
2022-12-20T04:10:26.170Z,13.70
2022-12-20T04:15:27.621Z,12.93
2022-12-20T04:20:29.333Z,14.85
2022-12-20T04:25:30.840Z,13.35
2022-12-20T04:30:32.259Z,13.05
2022-12-20T04:35:33.731Z,14.18
2022-12-20T04:40:35.218Z,13.18
2022-12-20T04:45:36.711Z,13.10
2022-12-20T04:50:38.457Z,13.77
2022-12-20T04:55:40.498Z,13.73
2022-12-20T05:00:42.129Z,13.27
2022-12-20T05:05:43.620Z,13.88
2022-12-20T05:10:45.505Z,12.40
2022-12-20T05:15:51.314Z,11.98
2022-12-20T05:21:15.024Z,12.25
2022-12-20T05:26:19.410Z,12.07
2022-12-20T05:31:21.089Z,12.27
2022-12-20T05:36:22.735Z,11.57
2022-12-20T05:41:24.255Z,11.98
2022-12-20T05:46:25.818Z,11.95
2022-12-20T05:51:27.502Z,12.73
2022-12-20T05:56:28.965Z,12.43
2022-12-20T06:01:30.587Z,11.18
2022-12-20T06:06:32.082Z,12.13
2022-12-20T06:11:33.811Z,12.63
2022-12-20T06:16:36.173Z,12.68
2022-12-20T06:21:37.637Z,12.43
2022-12-20T06:26:39.095Z,12.48
2022-12-20T06:31:41.250Z,12.18
2022-12-20T06:36:42.785Z,11.68
2022-12-20T06:41:44.533Z,13.07
2022-12-20T06:46:45.952Z,11.98
2022-12-20T06:51:47.442Z,12.63
2022-12-20T06:56:48.926Z,12.85
2022-12-20T07:01:50.514Z,12.55
2022-12-20T07:06:52.150Z,11.98
2022-12-20T07:11:53.750Z,12.35
2022-12-20T07:16:55.376Z,12.98
2022-12-20T07:21:56.908Z,11.57
2022-12-20T07:26:58.349Z,11.07
2022-12-20T07:32:00.208Z,11.85
2022-12-20T07:37:01.689Z,11.32
2022-12-20T07:42:03.355Z,10.75
2022-12-20T07:47:04.828Z,10.82
2022-12-20T07:52:10.140Z,10.90
2022-12-20T07:57:37.872Z,10.60
2022-12-20T08:02:45.491Z,11.18
2022-12-20T08:07:51.119Z,10.63
2022-12-20T08:12:58.084Z,11.95
2022-12-20T08:17:59.561Z,11.80
2022-12-20T08:23:03.804Z,11.93
2022-12-20T08:28:05.239Z,11.70
2022-12-20T08:33:07.187Z,11.75
2022-12-20T08:38:08.629Z,11.98
2022-12-20T08:43:10.456Z,11.77
2022-12-20T08:48:12.109Z,11.95
2022-12-20T08:53:13.643Z,12.68
2022-12-20T08:58:15.795Z,13.13
2022-12-20T09:03:17.403Z,11.48
2022-12-20T09:08:19.018Z,11.63
2022-12-20T09:13:21.647Z,11.77
2022-12-20T09:18:23.057Z,12.38
2022-12-20T09:23:24.481Z,11.23
2022-12-20T09:28:25.951Z,12.23
2022-12-20T09:33:28.574Z,10.93
2022-12-20T09:38:31.331Z,11.50
2022-12-20T09:43:33.485Z,11.32
2022-12-20T09:48:37.231Z,10.40
2022-12-20T09:54:16.716Z,9.93
2022-12-20T09:59:19.519Z,9.45
2022-12-20T10:04:29.647Z,8.25
2022-12-20T10:09:47.555Z,9.18
2022-12-20T10:15:18.503Z,9.90
2022-12-20T10:20:45.068Z,9.43
2022-12-20T10:25:47.314Z,10.23
2022-12-20T10:30:48.982Z,9.93
2022-12-20T10:35:51.361Z,9.50
2022-12-20T10:46:25.095Z,9.52
2022-12-20T10:51:26.577Z,10.07
2022-12-20T10:56:33.081Z,9.02
2022-12-20T11:01:36.964Z,10.63
2022-12-20T11:06:38.744Z,11.00
2022-12-20T11:11:57.734Z,11.98
2022-12-20T11:17:04.076Z,13.00
2022-12-20T11:22:20.906Z,11.68
2022-12-20T11:27:36.461Z,11.38
2022-12-20T11:32:52.573Z,10.93
2022-12-20T11:38:12.474Z,11.20
2022-12-20T11:43:27.349Z,10.38
2022-12-20T11:48:41.355Z,10.05
2022-12-20T11:54:21.267Z,10.05
2022-12-20T11:59:44.898Z,10.00
2022-12-20T12:05:01.317Z,9.27
2022-12-20T12:10:13.829Z,8.50
2022-12-20T12:15:17.253Z,7.97
2022-12-20T12:20:33.949Z,7.95
2022-12-20T12:25:35.522Z,8.27
2022-12-20T12:30:46.135Z,6.78
2022-12-20T12:36:09.061Z,7.50
2022-12-20T12:41:49.069Z,7.57
2022-12-20T12:46:58.753Z,7.35
2022-12-20T12:52:02.714Z,7.47
2022-12-20T12:57:13.698Z,7.03
2022-12-20T13:02:15.573Z,6.28
2022-12-20T13:07:35.405Z,6.65
2022-12-20T13:12:36.908Z,6.75
2022-12-20T13:17:52.696Z,7.68
2022-12-20T13:23:12.710Z,8.50
2022-12-20T13:28:23.463Z,17.13
2022-12-20T13:33:48.741Z,11.25
2022-12-20T13:38:51.865Z,7.75
2022-12-20T13:43:54.357Z,7.97
2022-12-20T13:49:03.102Z,6.93
2022-12-20T13:54:08.158Z,7.35
2022-12-20T13:59:29.072Z,7.93
2022-12-20T14:05:01.777Z,8.18
2022-12-20T14:10:05.077Z,8.30
2022-12-20T14:15:22.166Z,8.40
2022-12-20T14:20:44.702Z,8.68
2022-12-20T14:25:48.220Z,8.65
2022-12-20T14:30:49.768Z,8.70
2022-12-20T14:35:51.768Z,12.73
2022-12-20T14:40:54.421Z,12.68
2022-12-20T14:46:17.013Z,10.40
2022-12-20T14:51:21.980Z,10.32
2022-12-20T14:56:31.367Z,8.82
2022-12-20T15:01:38.384Z,10.00
2022-12-20T15:06:48.125Z,13.63
2022-12-20T15:11:51.726Z,10.18
2022-12-20T15:16:53.281Z,10.60
2022-12-20T15:21:54.892Z,9.85
2022-12-20T15:26:57.473Z,10.70
2022-12-20T15:32:17.983Z,11.68
2022-12-20T15:37:19.749Z,12.82
2022-12-20T15:42:22.911Z,13.65
2022-12-20T15:47:24.412Z,13.63
2022-12-20T15:52:25.925Z,15.20
2022-12-20T15:57:28.629Z,15.65
2022-12-20T16:02:31.163Z,14.80
2022-12-20T16:07:33.011Z,16.35
2022-12-20T16:12:36.168Z,17.17
2022-12-20T16:17:37.710Z,17.33
2022-12-20T16:22:39.197Z,16.90
2022-12-20T16:27:40.690Z,19.85
2022-12-20T16:32:42.106Z,24.55
2022-12-20T16:37:43.583Z,24.20
2022-12-20T16:42:45.764Z,20.85
2022-12-20T16:47:48.422Z,23.63
2022-12-20T16:52:50.701Z,22.10
2022-12-20T16:57:53.687Z,23.88
2022-12-20T17:02:56.144Z,23.08
2022-12-20T17:07:58.170Z,25.02
2022-12-20T17:12:59.920Z,25.35
2022-12-20T17:18:01.336Z,26.95
2022-12-20T17:23:02.831Z,27.00
2022-12-20T17:28:04.495Z,27.65
2022-12-20T17:33:05.888Z,28.30
2022-12-20T17:38:08.026Z,28.02
2022-12-20T17:43:12.087Z,30.23
2022-12-20T17:48:14.130Z,32.60
2022-12-20T17:53:15.670Z,30.05
2022-12-20T17:58:17.084Z,32.03
2022-12-20T18:03:53.478Z,31.58
2022-12-20T18:08:41.493Z,34.45
2022-12-20T18:13:44.841Z,32.17
2022-12-20T18:18:47.090Z,33.97
2022-12-20T18:23:49.602Z,29.52
2022-12-20T18:28:55.297Z,31.27
2022-12-20T18:33:58.750Z,30.45
2022-12-20T18:39:03.367Z,31.37
2022-12-20T18:44:07.025Z,30.17
2022-12-20T18:49:09.403Z,29.43
2022-12-20T18:54:12.752Z,30.55
2022-12-20T18:59:14.457Z,30.50
2022-12-20T19:04:22.449Z,25.35
2022-12-20T19:09:25.990Z,28.08
2022-12-20T19:14:27.509Z,24.23
2022-12-20T19:19:29.026Z,22.67
2022-12-20T19:24:30.626Z,19.77
2022-12-20T19:29:32.104Z,20.10
2022-12-20T19:34:33.599Z,20.00
2022-12-20T19:39:35.173Z,18.33
2022-12-20T19:44:36.606Z,18.00
2022-12-20T19:49:38.158Z,17.55
2022-12-20T19:54:39.844Z,18.38
2022-12-20T19:59:41.468Z,19.08
2022-12-20T20:04:42.882Z,18.33
2022-12-20T20:09:44.298Z,18.88
2022-12-20T20:14:45.889Z,19.27
2022-12-20T20:19:48.480Z,20.27
2022-12-20T20:24:50.044Z,20.95
2022-12-20T20:29:51.581Z,21.50
2022-12-20T20:34:53.078Z,21.92
2022-12-20T20:39:54.544Z,22.20
2022-12-20T20:44:56.015Z,21.83
2022-12-20T20:49:57.583Z,22.65
2022-12-20T20:54:59.045Z,22.67
2022-12-20T21:00:02.643Z,22.90
2022-12-20T21:05:59.845Z,22.60
2022-12-20T21:10:27.255Z,23.38
2022-12-20T21:15:29.242Z,22.70
2022-12-20T21:20:30.711Z,23.77
2022-12-20T21:25:32.360Z,25.58
2022-12-20T21:30:34.731Z,22.83
2022-12-20T21:35:36.156Z,24.00
2022-12-20T21:40:38.043Z,23.17
2022-12-20T21:45:39.513Z,23.20
2022-12-20T21:50:41.003Z,22.60
2022-12-20T21:55:42.484Z,22.05
2022-12-20T22:00:46.072Z,21.70
2022-12-20T22:05:53.152Z,23.30
2022-12-20T22:11:01.465Z,22.03
2022-12-20T22:16:14.064Z,21.55
2022-12-20T22:21:18.180Z,22.70
2022-12-20T22:26:21.921Z,21.52
2022-12-20T22:31:24.504Z,23.13
2022-12-20T22:36:26.599Z,22.00
2022-12-20T22:41:30.100Z,24.27
2022-12-20T22:46:31.955Z,25.13
2022-12-20T22:51:33.874Z,23.13
2022-12-20T22:56:35.826Z,22.55
2022-12-20T23:01:37.356Z,24.15
2022-12-20T23:06:38.877Z,22.88
2022-12-20T23:12:00.096Z,22.50
2022-12-20T23:17:02.452Z,22.13
2022-12-20T23:22:22.232Z,24.42
2022-12-20T23:27:24.829Z,24.33
2022-12-20T23:32:26.333Z,22.80
2022-12-20T23:37:31.552Z,25.05
2022-12-20T23:42:33.017Z,25.35
2022-12-20T23:47:34.572Z,23.33
2022-12-20T23:52:36.682Z,22.77
2022-12-20T23:57:38.134Z,26.33
